sensor_id;sensor_type;location;lat;lon;timestamp;pressure;altitude;pressure_sealevel;temperature;humidity
31483;BME280;18103;52.246;8.052;2023-12-04T00:02:03;100196.69;;;-1.56;97.14
31483;BME280;18103;52.246;8.052;2023-12-04T00:04:29;100190.56;;;-1.53;97.03
31483;BME280;18103;52.246;8.052;2023-12-04T00:06:59;100181.50;;;-1.40;96.79
31483;BME280;18103;52.246;8.052;2023-12-04T00:09:27;100181.50;;;-1.40;96.86
31483;BME280;18103;52.246;8.052;2023-12-04T00:11:53;100177.28;;;-1.43;96.67
31483;BME280;18103;52.246;8.052;2023-12-04T00:14:20;100171.47;;;-1.49;97.20
31483;BME280;18103;52.246;8.052;2023-12-04T00:16:48;100162.69;;;-1.45;97.48
31483;BME280;18103;52.246;8.052;2023-12-04T00:19:18;100170.38;;;-1.42;97.12
31483;BME280;18103;52.246;8.052;2023-12-04T00:21:46;100162.59;;;-1.42;97.06
31483;BME280;18103;52.246;8.052;2023-12-04T00:24:11;100166.06;;;-1.43;97.29
31483;BME280;18103;52.246;8.052;2023-12-04T00:26:42;100167.94;;;-1.48;96.97
31483;BME280;18103;52.246;8.052;2023-12-04T00:29:07;100154.78;;;-1.41;97.15
31483;BME280;18103;52.246;8.052;2023-12-04T00:31:33;100153.28;;;-1.48;97.91
31483;BME280;18103;52.246;8.052;2023-12-04T00:34:00;100150.69;;;-1.48;98.16
31483;BME280;18103;52.246;8.052;2023-12-04T00:36:25;100147.78;;;-1.39;97.31
31483;BME280;18103;52.246;8.052;2023-12-04T00:38:52;100149.41;;;-1.34;97.39
31483;BME280;18103;52.246;8.052;2023-12-04T00:41:20;100145.09;;;-1.34;97.62
31483;BME280;18103;52.246;8.052;2023-12-04T00:43:48;100140.56;;;-1.27;97.35
31483;BME280;18103;52.246;8.052;2023-12-04T00:46:13;100131.63;;;-1.45;98.08
31483;BME280;18103;52.246;8.052;2023-12-04T00:48:38;100132.47;;;-1.45;98.49
31483;BME280;18103;52.246;8.052;2023-12-04T00:51:04;100128.06;;;-1.41;98.09
31483;BME280;18103;52.246;8.052;2023-12-04T00:53:29;100128.94;;;-1.42;98.40
31483;BME280;18103;52.246;8.052;2023-12-04T00:55:55;100120.38;;;-1.44;98.41
31483;BME280;18103;52.246;8.052;2023-12-04T00:58:23;100120.03;;;-1.33;97.95
31483;BME280;18103;52.246;8.052;2023-12-04T01:00:49;100120.06;;;-1.35;98.59
31483;BME280;18103;52.246;8.052;2023-12-04T01:03:17;100125.09;;;-1.30;97.56
31483;BME280;18103;52.246;8.052;2023-12-04T01:05:45;100115.06;;;-1.40;98.50
31483;BME280;18103;52.246;8.052;2023-12-04T01:08:10;100108.13;;;-1.39;98.59
31483;BME280;18103;52.246;8.052;2023-12-04T01:10:39;100105.13;;;-1.27;97.78
31483;BME280;18103;52.246;8.052;2023-12-04T01:13:04;100100.97;;;-1.31;98.15
31483;BME280;18103;52.246;8.052;2023-12-04T01:15:30;100102.22;;;-1.43;98.39
31483;BME280;18103;52.246;8.052;2023-12-04T01:18:00;100104.38;;;-1.30;98.37
31483;BME280;18103;52.246;8.052;2023-12-04T01:20:28;100095.94;;;-1.35;98.58
31483;BME280;18103;52.246;8.052;2023-12-04T01:22:58;100092.34;;;-1.31;98.36
31483;BME280;18103;52.246;8.052;2023-12-04T01:25:26;100098.16;;;-1.25;98.18
31483;BME280;18103;52.246;8.052;2023-12-04T01:27:51;100089.50;;;-1.24;98.45
31483;BME280;18103;52.246;8.052;2023-12-04T01:30:17;100082.13;;;-1.36;99.06
31483;BME280;18103;52.246;8.052;2023-12-04T01:32:42;100084.66;;;-1.33;98.58
31483;BME280;18103;52.246;8.052;2023-12-04T01:35:10;100092.25;;;-1.28;99.20
31483;BME280;18103;52.246;8.052;2023-12-04T01:37:37;100085.59;;;-1.10;97.77
31483;BME280;18103;52.246;8.052;2023-12-04T01:40:04;100083.16;;;-1.15;98.27
31483;BME280;18103;52.246;8.052;2023-12-04T01:42:32;100077.50;;;-1.26;98.53
31483;BME280;18103;52.246;8.052;2023-12-04T01:45:00;100081.56;;;-1.19;98.38
31483;BME280;18103;52.246;8.052;2023-12-04T01:47:25;100084.75;;;-1.11;97.87
31483;BME280;18103;52.246;8.052;2023-12-04T01:49:51;100083.72;;;-1.07;97.91
31483;BME280;18103;52.246;8.052;2023-12-04T01:52:19;100078.56;;;-1.07;97.42
31483;BME280;18103;52.246;8.052;2023-12-04T01:54:53;100082.31;;;-1.15;98.51
31483;BME280;18103;52.246;8.052;2023-12-04T01:57:19;100094.84;;;-1.03;98.18
31483;BME280;18103;52.246;8.052;2023-12-04T01:59:47;100075.31;;;-1.12;97.60
31483;BME280;18103;52.246;8.052;2023-12-04T02:02:12;100064.31;;;-1.18;98.61
31483;BME280;18103;52.246;8.052;2023-12-04T02:04:38;100063.50;;;-1.21;98.26
31483;BME280;18103;52.246;8.052;2023-12-04T02:07:04;100059.97;;;-1.18;98.58
31483;BME280;18103;52.246;8.052;2023-12-04T02:09:31;100056.31;;;-1.12;98.28
31483;BME280;18103;52.246;8.052;2023-12-04T02:11:58;100050.41;;;-1.16;98.42
31483;BME280;18103;52.246;8.052;2023-12-04T02:14:26;100040.72;;;-1.11;98.49
31483;BME280;18103;52.246;8.052;2023-12-04T02:16:52;100041.41;;;-1.06;98.07
31483;BME280;18103;52.246;8.052;2023-12-04T02:19:21;100040.72;;;-1.11;98.57
31483;BME280;18103;52.246;8.052;2023-12-04T02:21:49;100041.50;;;-1.09;98.37
31483;BME280;18103;52.246;8.052;2023-12-04T02:24:18;100037.06;;;-1.05;98.27
31483;BME280;18103;52.246;8.052;2023-12-04T02:26:52;100029.03;;;-0.97;97.90
31483;BME280;18103;52.246;8.052;2023-12-04T02:29:39;100020.69;;;-1.06;98.62
31483;BME280;18103;52.246;8.052;2023-12-04T02:32:09;100024.84;;;-1.01;98.30
31483;BME280;18103;52.246;8.052;2023-12-04T02:34:37;100018.50;;;-0.93;97.82
31483;BME280;18103;52.246;8.052;2023-12-04T02:37:04;100010.94;;;-0.99;98.00
31483;BME280;18103;52.246;8.052;2023-12-04T02:39:33;100008.56;;;-1.05;98.44
31483;BME280;18103;52.246;8.052;2023-12-04T02:41:58;100005.03;;;-1.02;98.57
31483;BME280;18103;52.246;8.052;2023-12-04T02:44:23;100003.91;;;-0.95;97.72
31483;BME280;18103;52.246;8.052;2023-12-04T02:46:51;100002.63;;;-0.83;97.43
31483;BME280;18103;52.246;8.052;2023-12-04T02:49:16;99997.38;;;-0.82;97.05
31483;BME280;18103;52.246;8.052;2023-12-04T02:51:42;99992.38;;;-0.87;97.40
31483;BME280;18103;52.246;8.052;2023-12-04T02:54:09;99996.94;;;-0.93;97.59
31483;BME280;18103;52.246;8.052;2023-12-04T02:56:35;99999.41;;;-0.90;97.54
31483;BME280;18103;52.246;8.052;2023-12-04T02:59:00;99995.53;;;-0.78;97.29
31483;BME280;18103;52.246;8.052;2023-12-04T03:01:25;99987.34;;;-0.91;97.30
31483;BME280;18103;52.246;8.052;2023-12-04T03:03:54;99978.84;;;-0.95;97.53
31483;BME280;18103;52.246;8.052;2023-12-04T03:06:19;99981.56;;;-0.98;97.91
31483;BME280;18103;52.246;8.052;2023-12-04T03:08:47;99979.38;;;-0.85;97.12
31483;BME280;18103;52.246;8.052;2023-12-04T03:11:15;99974.44;;;-0.69;96.64
31483;BME280;18103;52.246;8.052;2023-12-04T03:13:40;99975.84;;;-0.84;97.13
31483;BME280;18103;52.246;8.052;2023-12-04T03:16:18;99969.94;;;-0.88;97.00
31483;BME280;18103;52.246;8.052;2023-12-04T03:18:46;99961.28;;;-0.87;96.96
31483;BME280;18103;52.246;8.052;2023-12-04T03:21:12;99961.16;;;-0.83;97.01
31483;BME280;18103;52.246;8.052;2023-12-04T03:23:40;99963.38;;;-0.96;96.92
31483;BME280;18103;52.246;8.052;2023-12-04T03:26:05;99956.69;;;-0.80;96.27
31483;BME280;18103;52.246;8.052;2023-12-04T03:28:36;99958.44;;;-0.80;96.40
31483;BME280;18103;52.246;8.052;2023-12-04T03:31:02;99955.19;;;-0.86;96.39
31483;BME280;18103;52.246;8.052;2023-12-04T03:33:27;99951.41;;;-0.77;96.00
31483;BME280;18103;52.246;8.052;2023-12-04T03:35:52;99950.88;;;-0.85;96.18
31483;BME280;18103;52.246;8.052;2023-12-04T03:38:20;99941.22;;;-0.81;96.34
31483;BME280;18103;52.246;8.052;2023-12-04T03:40:46;99941.75;;;-0.73;96.07
31483;BME280;18103;52.246;8.052;2023-12-04T03:43:11;99937.97;;;-0.64;95.14
31483;BME280;18103;52.246;8.052;2023-12-04T03:45:36;99938.47;;;-0.77;95.95
31483;BME280;18103;52.246;8.052;2023-12-04T03:48:05;99933.56;;;-0.84;95.59
31483;BME280;18103;52.246;8.052;2023-12-04T03:50:30;99922.91;;;-0.77;95.10
31483;BME280;18103;52.246;8.052;2023-12-04T03:52:55;99923.88;;;-0.79;94.92
31483;BME280;18103;52.246;8.052;2023-12-04T03:55:21;99926.41;;;-0.78;94.92
31483;BME280;18103;52.246;8.052;2023-12-04T03:57:46;99920.47;;;-0.81;94.77
31483;BME280;18103;52.246;8.052;2023-12-04T04:00:12;99919.13;;;-0.68;93.95
31483;BME280;18103;52.246;8.052;2023-12-04T04:02:39;99913.63;;;-0.60;93.84
31483;BME280;18103;52.246;8.052;2023-12-04T04:05:05;99911.28;;;-0.66;93.83
31483;BME280;18103;52.246;8.052;2023-12-04T04:07:33;99913.38;;;-0.76;94.08
31483;BME280;18103;52.246;8.052;2023-12-04T04:09:58;99904.59;;;-0.72;93.85
31483;BME280;18103;52.246;8.052;2023-12-04T04:12:23;99907.13;;;-0.71;93.66
31483;BME280;18103;52.246;8.052;2023-12-04T04:14:49;99908.75;;;-0.68;93.00
31483;BME280;18103;52.246;8.052;2023-12-04T04:17:16;99893.81;;;-0.83;93.45
31483;BME280;18103;52.246;8.052;2023-12-04T04:19:42;99895.25;;;-0.76;93.36
31483;BME280;18103;52.246;8.052;2023-12-04T04:22:10;99886.69;;;-0.78;93.19
31483;BME280;18103;52.246;8.052;2023-12-04T04:24:36;99893.41;;;-0.73;92.83
31483;BME280;18103;52.246;8.052;2023-12-04T04:27:01;99883.84;;;-0.72;92.83
31483;BME280;18103;52.246;8.052;2023-12-04T04:29:26;99882.16;;;-0.73;92.78
31483;BME280;18103;52.246;8.052;2023-12-04T04:31:52;99879.50;;;-0.72;92.30
31483;BME280;18103;52.246;8.052;2023-12-04T04:34:21;99883.97;;;-0.53;91.23
31483;BME280;18103;52.246;8.052;2023-12-04T04:36:46;99886.09;;;-0.63;91.69
31483;BME280;18103;52.246;8.052;2023-12-04T04:39:13;99885.06;;;-0.81;91.37
31483;BME280;18103;52.246;8.052;2023-12-04T04:41:39;99879.91;;;-0.60;89.54
31483;BME280;18103;52.246;8.052;2023-12-04T04:44:06;99876.00;;;-0.48;90.16
31483;BME280;18103;52.246;8.052;2023-12-04T04:46:32;99882.34;;;-0.56;89.85
31483;BME280;18103;52.246;8.052;2023-12-04T04:48:57;99881.91;;;-0.45;90.18
31483;BME280;18103;52.246;8.052;2023-12-04T04:51:23;99876.22;;;-0.53;90.41
31483;BME280;18103;52.246;8.052;2023-12-04T04:53:49;99874.19;;;-0.46;89.58
31483;BME280;18103;52.246;8.052;2023-12-04T04:56:14;99884.31;;;-0.40;88.12
31483;BME280;18103;52.246;8.052;2023-12-04T04:58:40;99875.88;;;-0.45;87.80
31483;BME280;18103;52.246;8.052;2023-12-04T05:01:06;99869.72;;;-0.43;89.04
31483;BME280;18103;52.246;8.052;2023-12-04T05:03:34;99872.94;;;-0.36;89.51
31483;BME280;18103;52.246;8.052;2023-12-04T05:06:00;99871.03;;;-0.53;89.33
31483;BME280;18103;52.246;8.052;2023-12-04T05:08:28;99873.28;;;-0.45;87.42
31483;BME280;18103;52.246;8.052;2023-12-04T05:10:53;99864.16;;;-0.54;88.49
31483;BME280;18103;52.246;8.052;2023-12-04T05:13:18;99860.88;;;-0.59;88.71
31483;BME280;18103;52.246;8.052;2023-12-04T05:15:44;99859.72;;;-0.52;88.02
31483;BME280;18103;52.246;8.052;2023-12-04T05:18:09;99853.56;;;-0.49;85.89
31483;BME280;18103;52.246;8.052;2023-12-04T05:20:34;99860.31;;;-0.45;87.25
31483;BME280;18103;52.246;8.052;2023-12-04T05:23:00;99847.38;;;-0.45;86.58
31483;BME280;18103;52.246;8.052;2023-12-04T05:25:25;99841.69;;;-0.33;87.64
31483;BME280;18103;52.246;8.052;2023-12-04T05:27:53;99839.66;;;-0.47;87.82
31483;BME280;18103;52.246;8.052;2023-12-04T05:30:18;99843.00;;;-0.45;87.46
31483;BME280;18103;52.246;8.052;2023-12-04T05:32:44;99842.03;;;-0.42;86.64
31483;BME280;18103;52.246;8.052;2023-12-04T05:35:11;99836.47;;;-0.54;87.61
31483;BME280;18103;52.246;8.052;2023-12-04T05:37:37;99836.94;;;-0.44;86.05
31483;BME280;18103;52.246;8.052;2023-12-04T05:40:02;99829.75;;;-0.37;86.92
31483;BME280;18103;52.246;8.052;2023-12-04T05:42:30;99830.84;;;-0.43;87.24
31483;BME280;18103;52.246;8.052;2023-12-04T05:44:55;99828.06;;;-0.38;86.60
31483;BME280;18103;52.246;8.052;2023-12-04T05:47:22;99835.91;;;-0.40;85.80
31483;BME280;18103;52.246;8.052;2023-12-04T05:49:47;99822.00;;;-0.59;87.11
31483;BME280;18103;52.246;8.052;2023-12-04T05:52:13;99831.44;;;-0.36;85.90
31483;BME280;18103;52.246;8.052;2023-12-04T05:54:38;99825.31;;;-0.35;85.86
31483;BME280;18103;52.246;8.052;2023-12-04T05:57:07;99831.56;;;-0.39;86.53
31483;BME280;18103;52.246;8.052;2023-12-04T05:59:32;99833.91;;;-0.33;86.10
31483;BME280;18103;52.246;8.052;2023-12-04T06:01:57;99833.97;;;-0.35;84.66
31483;BME280;18103;52.246;8.052;2023-12-04T06:04:23;99821.66;;;-0.29;85.60
31483;BME280;18103;52.246;8.052;2023-12-04T06:06:51;99818.41;;;-0.35;85.92
31483;BME280;18103;52.246;8.052;2023-12-04T06:09:19;99814.56;;;-0.26;84.95
31483;BME280;18103;52.246;8.052;2023-12-04T06:11:44;99813.28;;;-0.36;85.01
31483;BME280;18103;52.246;8.052;2023-12-04T06:14:10;99814.78;;;-0.30;85.48
31483;BME280;18103;52.246;8.052;2023-12-04T06:16:37;99814.84;;;-0.32;85.48
31483;BME280;18103;52.246;8.052;2023-12-04T06:19:05;99817.53;;;-0.35;85.36
31483;BME280;18103;52.246;8.052;2023-12-04T06:21:31;99815.47;;;-0.27;85.37
31483;BME280;18103;52.246;8.052;2023-12-04T06:23:56;99815.31;;;-0.22;83.29
31483;BME280;18103;52.246;8.052;2023-12-04T06:26:25;99829.47;;;-0.31;84.66
31483;BME280;18103;52.246;8.052;2023-12-04T06:28:51;99820.41;;;-0.21;83.07
31483;BME280;18103;52.246;8.052;2023-12-04T06:31:17;99828.28;;;-0.22;84.04
31483;BME280;18103;52.246;8.052;2023-12-04T06:33:42;99824.81;;;-0.23;83.10
31483;BME280;18103;52.246;8.052;2023-12-04T06:36:08;99820.50;;;-0.22;81.95
31483;BME280;18103;52.246;8.052;2023-12-04T06:38:37;99822.66;;;-0.13;81.65
31483;BME280;18103;52.246;8.052;2023-12-04T06:41:06;99822.75;;;-0.14;83.05
31483;BME280;18103;52.246;8.052;2023-12-04T06:43:34;99817.81;;;-0.21;81.71
31483;BME280;18103;52.246;8.052;2023-12-04T06:46:03;99818.66;;;-0.20;82.37
31483;BME280;18103;52.246;8.052;2023-12-04T06:48:29;99814.97;;;-0.14;82.78
31483;BME280;18103;52.246;8.052;2023-12-04T06:50:54;99817.16;;;-0.26;83.15
31483;BME280;18103;52.246;8.052;2023-12-04T06:53:20;99812.06;;;-0.27;83.10
31483;BME280;18103;52.246;8.052;2023-12-04T06:55:45;99815.84;;;-0.15;82.73
31483;BME280;18103;52.246;8.052;2023-12-04T06:58:11;99813.25;;;-0.15;82.64
31483;BME280;18103;52.246;8.052;2023-12-04T07:00:38;99805.56;;;-0.17;80.70
31483;BME280;18103;52.246;8.052;2023-12-04T07:03:06;99805.47;;;-0.15;81.03
31483;BME280;18103;52.246;8.052;2023-12-04T07:05:34;99798.63;;;-0.16;81.44
31483;BME280;18103;52.246;8.052;2023-12-04T07:08:00;99799.53;;;-0.18;83.08
31483;BME280;18103;52.246;8.052;2023-12-04T07:10:25;99793.38;;;-0.15;82.51
31483;BME280;18103;52.246;8.052;2023-12-04T07:12:50;99799.06;;;-0.07;80.53
31483;BME280;18103;52.246;8.052;2023-12-04T07:15:16;99801.53;;;-0.04;79.77
31483;BME280;18103;52.246;8.052;2023-12-04T07:17:42;99801.47;;;-0.02;80.04
31483;BME280;18103;52.246;8.052;2023-12-04T07:20:08;99797.09;;;-0.02;81.01
31483;BME280;18103;52.246;8.052;2023-12-04T07:22:36;99794.94;;;0.08;80.36
31483;BME280;18103;52.246;8.052;2023-12-04T07:25:02;99796.31;;;0.17;80.74
31483;BME280;18103;52.246;8.052;2023-12-04T07:27:27;99785.94;;;0.17;81.06
31483;BME280;18103;52.246;8.052;2023-12-04T07:29:53;99781.25;;;0.25;81.90
31483;BME280;18103;52.246;8.052;2023-12-04T07:32:18;99788.31;;;0.22;82.50
31483;BME280;18103;52.246;8.052;2023-12-04T07:34:44;99781.50;;;0.19;83.22
31483;BME280;18103;52.246;8.052;2023-12-04T07:37:10;99773.50;;;0.24;84.38
31483;BME280;18103;52.246;8.052;2023-12-04T07:39:35;99773.22;;;0.11;85.21
31483;BME280;18103;52.246;8.052;2023-12-04T07:42:03;99775.53;;;-0.02;85.03
31483;BME280;18103;52.246;8.052;2023-12-04T07:44:29;99782.97;;;0.06;85.37
31483;BME280;18103;52.246;8.052;2023-12-04T07:46:54;99771.06;;;0.02;85.16
31483;BME280;18103;52.246;8.052;2023-12-04T07:49:19;99769.38;;;0.01;85.66
31483;BME280;18103;52.246;8.052;2023-12-04T07:51:45;99770.84;;;0.06;85.32
31483;BME280;18103;52.246;8.052;2023-12-04T07:54:10;99759.19;;;-0.04;85.60
31483;BME280;18103;52.246;8.052;2023-12-04T07:56:36;99766.25;;;-0.08;85.56
31483;BME280;18103;52.246;8.052;2023-12-04T07:59:02;99762.78;;;-0.27;85.67
31483;BME280;18103;52.246;8.052;2023-12-04T08:01:27;99757.00;;;-0.13;85.30
31483;BME280;18103;52.246;8.052;2023-12-04T08:03:52;99767.00;;;-0.25;85.08
31483;BME280;18103;52.246;8.052;2023-12-04T08:06:20;99761.91;;;-0.07;84.23
31483;BME280;18103;52.246;8.052;2023-12-04T08:08:45;99761.53;;;-0.19;84.47
31483;BME280;18103;52.246;8.052;2023-12-04T08:11:11;99759.81;;;0.01;84.33
31483;BME280;18103;52.246;8.052;2023-12-04T08:13:40;99749.28;;;0.04;84.66
31483;BME280;18103;52.246;8.052;2023-12-04T08:16:14;99751.94;;;-0.16;85.42
31483;BME280;18103;52.246;8.052;2023-12-04T08:18:42;99742.16;;;-0.10;84.86
31483;BME280;18103;52.246;8.052;2023-12-04T08:21:09;99742.19;;;-0.11;85.02
31483;BME280;18103;52.246;8.052;2023-12-04T08:23:36;99741.22;;;-0.09;85.30
31483;BME280;18103;52.246;8.052;2023-12-04T08:26:02;99737.50;;;-0.22;85.40
31483;BME280;18103;52.246;8.052;2023-12-04T08:28:29;99734.03;;;-0.23;85.12
31483;BME280;18103;52.246;8.052;2023-12-04T08:30:57;99733.53;;;-0.31;85.12
31483;BME280;18103;52.246;8.052;2023-12-04T08:33:23;99737.56;;;-0.24;84.36
31483;BME280;18103;52.246;8.052;2023-12-04T08:35:48;99733.00;;;-0.19;84.53
31483;BME280;18103;52.246;8.052;2023-12-04T08:38:17;99726.94;;;0.02;83.53
31483;BME280;18103;52.246;8.052;2023-12-04T08:40:42;99723.78;;;-0.05;84.77
31483;BME280;18103;52.246;8.052;2023-12-04T08:43:08;99720.06;;;0.01;84.65
31483;BME280;18103;52.246;8.052;2023-12-04T08:45:34;99715.56;;;-0.15;84.34
31483;BME280;18103;52.246;8.052;2023-12-04T08:48:01;99709.38;;;-0.31;84.08
31483;BME280;18103;52.246;8.052;2023-12-04T08:50:27;99697.75;;;-0.23;84.41
31483;BME280;18103;52.246;8.052;2023-12-04T08:52:54;99703.66;;;-0.19;83.65
31483;BME280;18103;52.246;8.052;2023-12-04T08:55:20;99703.44;;;-0.14;84.23
31483;BME280;18103;52.246;8.052;2023-12-04T08:57:45;99700.06;;;-0.16;84.59
31483;BME280;18103;52.246;8.052;2023-12-04T09:00:11;99705.59;;;-0.24;84.45
31483;BME280;18103;52.246;8.052;2023-12-04T09:02:37;99708.84;;;-0.19;84.44
31483;BME280;18103;52.246;8.052;2023-12-04T09:05:02;99696.69;;;-0.19;83.56
31483;BME280;18103;52.246;8.052;2023-12-04T09:07:28;99689.41;;;-0.29;84.48
31483;BME280;18103;52.246;8.052;2023-12-04T09:09:53;99684.69;;;-0.21;84.44
31483;BME280;18103;52.246;8.052;2023-12-04T09:12:18;99687.28;;;-0.40;83.74
31483;BME280;18103;52.246;8.052;2023-12-04T09:14:46;99683.22;;;-0.27;84.79
31483;BME280;18103;52.246;8.052;2023-12-04T09:17:15;99679.94;;;-0.30;84.31
31483;BME280;18103;52.246;8.052;2023-12-04T09:19:41;99680.84;;;-0.31;84.17
31483;BME280;18103;52.246;8.052;2023-12-04T09:22:06;99686.81;;;-0.29;83.82
31483;BME280;18103;52.246;8.052;2023-12-04T09:24:33;99681.69;;;-0.31;83.75
31483;BME280;18103;52.246;8.052;2023-12-04T09:26:58;99681.81;;;-0.34;83.88
31483;BME280;18103;52.246;8.052;2023-12-04T09:29:24;99679.59;;;-0.23;83.51
31483;BME280;18103;52.246;8.052;2023-12-04T09:31:52;99684.69;;;-0.21;84.05
31483;BME280;18103;52.246;8.052;2023-12-04T09:34:18;99676.31;;;-0.26;82.12
31483;BME280;18103;52.246;8.052;2023-12-04T09:36:45;99672.78;;;-0.25;83.19
31483;BME280;18103;52.246;8.052;2023-12-04T09:39:11;99679.16;;;-0.32;83.24
31483;BME280;18103;52.246;8.052;2023-12-04T09:41:41;99676.16;;;-0.23;83.57
31483;BME280;18103;52.246;8.052;2023-12-04T09:44:07;99671.13;;;-0.26;83.05
31483;BME280;18103;52.246;8.052;2023-12-04T09:46:34;99672.25;;;-0.32;82.81
31483;BME280;18103;52.246;8.052;2023-12-04T09:48:59;99673.78;;;-0.28;82.61
31483;BME280;18103;52.246;8.052;2023-12-04T09:51:29;99670.25;;;-0.27;82.77
31483;BME280;18103;52.246;8.052;2023-12-04T09:53:57;99667.56;;;-0.24;83.09
31483;BME280;18103;52.246;8.052;2023-12-04T09:56:29;99660.91;;;-0.29;82.15
31483;BME280;18103;52.246;8.052;2023-12-04T09:58:58;99655.00;;;-0.33;80.90
31483;BME280;18103;52.246;8.052;2023-12-04T10:01:30;99659.06;;;-0.27;81.93
31483;BME280;18103;52.246;8.052;2023-12-04T10:03:59;99649.41;;;-0.24;82.39
31483;BME280;18103;52.246;8.052;2023-12-04T10:06:28;99646.59;;;-0.19;82.07
31483;BME280;18103;52.246;8.052;2023-12-04T10:08:55;99639.72;;;-0.20;82.07
31483;BME280;18103;52.246;8.052;2023-12-04T10:11:24;99635.44;;;-0.21;80.42
31483;BME280;18103;52.246;8.052;2023-12-04T10:13:50;99639.34;;;-0.31;81.60
31483;BME280;18103;52.246;8.052;2023-12-04T10:16:31;99635.78;;;-0.29;80.58
31483;BME280;18103;52.246;8.052;2023-12-04T10:19:19;99630.19;;;-0.20;80.69
31483;BME280;18103;52.246;8.052;2023-12-04T10:21:46;99618.75;;;-0.15;81.28
31483;BME280;18103;52.246;8.052;2023-12-04T10:26:54;99615.31;;;-0.16;79.73
31483;BME280;18103;52.246;8.052;2023-12-04T10:29:19;99616.22;;;-0.17;79.92
31483;BME280;18103;52.246;8.052;2023-12-04T10:31:47;99616.22;;;-0.17;80.24
31483;BME280;18103;52.246;8.052;2023-12-04T10:34:16;99609.88;;;-0.10;80.21
31483;BME280;18103;52.246;8.052;2023-12-04T10:36:45;99602.53;;;-0.02;79.38
31483;BME280;18103;52.246;8.052;2023-12-04T10:39:16;99609.50;;;-0.02;77.72
31483;BME280;18103;52.246;8.052;2023-12-04T10:41:44;99593.44;;;-0.10;78.08
31483;BME280;18103;52.246;8.052;2023-12-04T10:44:16;99580.66;;;0.04;79.51
31483;BME280;18103;52.246;8.052;2023-12-04T10:46:44;99575.47;;;0.04;79.50
31483;BME280;18103;52.246;8.052;2023-12-04T10:49:11;99572.75;;;0.07;77.76
31483;BME280;18103;52.246;8.052;2023-12-04T10:51:37;99579.41;;;0.13;79.55
31483;BME280;18103;52.246;8.052;2023-12-04T10:54:03;99568.47;;;0.06;77.90
31483;BME280;18103;52.246;8.052;2023-12-04T10:56:36;99559.56;;;0.12;77.85
31483;BME280;18103;52.246;8.052;2023-12-04T10:59:11;99560.31;;;0.14;77.78
31483;BME280;18103;52.246;8.052;2023-12-04T11:01:38;99564.19;;;0.05;78.70
31483;BME280;18103;52.246;8.052;2023-12-04T11:04:16;99553.66;;;0.08;79.03
31483;BME280;18103;52.246;8.052;2023-12-04T11:06:46;99557.94;;;0.09;79.64
31483;BME280;18103;52.246;8.052;2023-12-04T11:09:17;99557.31;;;0.04;78.55
31483;BME280;18103;52.246;8.052;2023-12-04T11:11:46;99555.13;;;0.14;78.73
31483;BME280;18103;52.246;8.052;2023-12-04T11:14:16;99546.19;;;0.20;76.98
31483;BME280;18103;52.246;8.052;2023-12-04T11:16:53;99539.63;;;0.12;76.30
31483;BME280;18103;52.246;8.052;2023-12-04T11:19:53;99530.94;;;0.13;76.87
31483;BME280;18103;52.246;8.052;2023-12-04T11:22:21;99536.56;;;0.04;77.38
31483;BME280;18103;52.246;8.052;2023-12-04T11:24:52;99530.84;;;0.15;78.42
31483;BME280;18103;52.246;8.052;2023-12-04T11:27:18;99523.63;;;0.22;78.09
31483;BME280;18103;52.246;8.052;2023-12-04T11:29:46;99522.44;;;0.10;77.27
31483;BME280;18103;52.246;8.052;2023-12-04T11:32:19;99518.50;;;0.20;77.21
31483;BME280;18103;52.246;8.052;2023-12-04T11:34:50;99508.88;;;0.22;76.79
31483;BME280;18103;52.246;8.052;2023-12-04T11:37:19;99512.44;;;0.20;74.29
31483;BME280;18103;52.246;8.052;2023-12-04T11:39:47;99519.66;;;0.14;77.65
31483;BME280;18103;52.246;8.052;2023-12-04T11:42:19;99507.13;;;0.23;77.19
31483;BME280;18103;52.246;8.052;2023-12-04T11:44:51;99507.41;;;0.16;76.42
31483;BME280;18103;52.246;8.052;2023-12-04T11:47:23;99505.88;;;0.12;76.06
31483;BME280;18103;52.246;8.052;2023-12-04T11:49:50;99509.94;;;0.18;76.94
31483;BME280;18103;52.246;8.052;2023-12-04T11:52:16;99494.59;;;0.13;75.69
31483;BME280;18103;52.246;8.052;2023-12-04T11:57:32;99495.38;;;0.33;75.13
31483;BME280;18103;52.246;8.052;2023-12-04T12:05:21;99485.00;;;0.33;74.05
31483;BME280;18103;52.246;8.052;2023-12-04T12:07:47;99491.47;;;0.42;76.44
31483;BME280;18103;52.246;8.052;2023-12-04T12:10:13;99475.75;;;0.45;73.64
31483;BME280;18103;52.246;8.052;2023-12-04T12:12:42;99475.50;;;0.49;73.88
31483;BME280;18103;52.246;8.052;2023-12-04T12:15:09;99478.97;;;0.32;76.28
31483;BME280;18103;52.246;8.052;2023-12-04T12:17:35;99472.84;;;0.33;76.82
31483;BME280;18103;52.246;8.052;2023-12-04T12:20:00;99469.66;;;0.28;76.38
31483;BME280;18103;52.246;8.052;2023-12-04T12:22:29;99461.47;;;0.36;75.40
31483;BME280;18103;52.246;8.052;2023-12-04T12:24:54;99459.44;;;0.25;76.66
31483;BME280;18103;52.246;8.052;2023-12-04T12:27:25;99462.03;;;0.25;75.85
31483;BME280;18103;52.246;8.052;2023-12-04T12:29:51;99453.69;;;0.36;75.62
31483;BME280;18103;52.246;8.052;2023-12-04T12:32:16;99456.69;;;0.28;76.64
31483;BME280;18103;52.246;8.052;2023-12-04T12:34:44;99455.63;;;0.32;76.22
31483;BME280;18103;52.246;8.052;2023-12-04T12:37:09;99449.19;;;0.40;77.47
31483;BME280;18103;52.246;8.052;2023-12-04T12:39:35;99450.19;;;0.37;76.75
31483;BME280;18103;52.246;8.052;2023-12-04T12:42:01;99450.00;;;0.40;74.13
31483;BME280;18103;52.246;8.052;2023-12-04T12:44:39;99436.03;;;0.43;76.69
31483;BME280;18103;52.246;8.052;2023-12-04T12:47:06;99433.91;;;0.33;75.80
31483;BME280;18103;52.246;8.052;2023-12-04T12:49:32;99435.06;;;0.45;76.51
31483;BME280;18103;52.246;8.052;2023-12-04T12:52:01;99435.78;;;0.47;77.11
31483;BME280;18103;52.246;8.052;2023-12-04T12:54:26;99428.19;;;0.44;75.80
31483;BME280;18103;52.246;8.052;2023-12-04T12:56:52;99430.25;;;0.38;74.98
31483;BME280;18103;52.246;8.052;2023-12-04T12:59:17;99434.16;;;0.46;75.95
31483;BME280;18103;52.246;8.052;2023-12-04T13:01:43;99427.56;;;0.39;76.40
31483;BME280;18103;52.246;8.052;2023-12-04T13:04:08;99419.84;;;0.38;75.94
31483;BME280;18103;52.246;8.052;2023-12-04T13:06:35;99419.56;;;0.44;76.29
31483;BME280;18103;52.246;8.052;2023-12-04T13:09:03;99405.81;;;0.42;76.71
31483;BME280;18103;52.246;8.052;2023-12-04T13:11:31;99403.00;;;0.46;76.58